Time;durP1;ratioP1;P1;durP2;ratioP2;P2;SDS_P1;SDS_P2;PMS_P1;PMS_P2;Temp;Humidity;BMP_temperature;BMP_pressure;BME280_temperature;BME280_humidity;BME280_pressure;Samples;Min_cycle;Max_cycle;Signal;HPM_P1;HPM_P2
2023/08/06 00:00:06;;;;;;;11.50;6.40;;;;;;;23.96;100.00;99202.55;105999;1251;70164;-75
2023/08/06 00:02:37;;;;;;;7.40;6.20;;;;;;;23.95;100.00;99200.55;105985;1249;64097;-74
2023/08/06 00:05:06;;;;;;;7.10;6.30;;;;;;;23.93;100.00;99203.92;105909;1251;61358;-74
2023/08/06 00:07:34;;;;;;;7.00;6.10;;;;;;;23.91;100.00;99201.41;105995;1251;61113;-74
2023/08/06 00:10:04;;;;;;;7.70;5.90;;;;;;;23.89;100.00;99200.38;105975;1252;74692;-74
2023/08/06 00:12:31;;;;;;;9.70;7.10;;;;;;;23.87;100.00;99197.85;106003;1251;71082;-75
2023/08/06 00:15:03;;;;;;;8.70;6.80;;;;;;;23.86;100.00;99196.34;105921;1251;72485;-75
2023/08/06 00:17:33;;;;;;;8.10;6.20;;;;;;;23.85;100.00;99196.48;105944;1252;61854;-74
2023/08/06 00:20:05;;;;;;;8.00;6.30;;;;;;;23.85;100.00;99197.75;105990;1254;61237;-74
2023/08/06 00:22:35;;;;;;;6.60;5.90;;;;;;;23.84;100.00;99193.50;105953;1251;73517;-75
2023/08/06 00:25:03;;;;;;;7.00;6.40;;;;;;;23.82;100.00;99194.23;106008;1251;69841;-74
2023/08/06 00:27:32;;;;;;;7.60;6.00;;;;;;;23.81;100.00;99190.17;106012;1254;72786;-73
2023/08/06 00:30:03;;;;;;;6.90;6.30;;;;;;;23.81;100.00;99194.15;106050;1254;61362;-73
2023/08/06 00:32:33;;;;;;;10.60;6.50;;;;;;;23.80;100.00;99194.77;105989;1251;61614;-74
2023/08/06 00:35:00;;;;;;;8.80;6.20;;;;;;;23.78;100.00;99189.46;106054;1251;74544;-74
2023/08/06 00:37:31;;;;;;;8.10;6.90;;;;;;;23.75;100.00;99193.11;106023;1251;71155;-75
2023/08/06 00:40:07;;;;;;;10.20;6.20;;;;;;;23.71;100.00;99185.17;105967;1254;71754;-74
2023/08/06 00:42:39;;;;;;;7.10;6.30;;;;;;;23.69;100.00;99176.79;105983;1251;61259;-75
2023/08/06 00:45:09;;;;;;;7.20;6.40;;;;;;;23.67;100.00;99178.02;105932;1251;61234;-74
2023/08/06 00:47:40;;;;;;;7.80;6.50;;;;;;;23.65;100.00;99178.42;106003;1251;74698;-75
2023/08/06 00:50:14;;;;;;;8.20;6.20;;;;;;;23.64;100.00;99182.05;105945;1253;70887;-75
2023/08/06 00:52:50;;;;;;;7.60;5.90;;;;;;;23.64;100.00;99174.05;105950;1251;72700;-75
2023/08/06 00:55:18;;;;;;;9.50;6.90;;;;;;;23.63;100.00;99176.80;105928;1253;61265;-74
2023/08/06 00:57:47;;;;;;;9.00;6.70;;;;;;;23.62;100.00;99174.74;105930;1253;61132;-74
2023/08/06 01:00:18;;;;;;;6.20;5.70;;;;;;;23.63;100.00;99170.20;105988;1253;74471;-75
2023/08/06 01:02:48;;;;;;;11.00;6.50;;;;;;;23.62;100.00;99166.40;106004;1254;70995;-75
2023/08/06 01:05:16;;;;;;;7.80;6.40;;;;;;;23.60;100.00;99170.52;106043;1251;72513;-75
2023/08/06 01:08:08;;;;;;;7.90;6.30;;;;;;;23.58;100.00;99168.70;105960;1250;61397;-74
2023/08/06 01:10:59;;;;;;;7.70;6.30;;;;;;;23.56;100.00;99165.48;105983;1253;61264;-75
2023/08/06 01:13:47;;;;;;;6.80;6.20;;;;;;;23.56;100.00;99158.86;105776;1256;74523;-74
2023/08/06 01:16:19;;;;;;;8.80;6.80;;;;;;;23.54;100.00;99163.40;106005;1251;70059;-75
2023/08/06 01:18:49;;;;;;;11.20;6.60;;;;;;;23.53;100.00;99163.31;105956;1251;72417;-74
2023/08/06 01:21:18;;;;;;;7.30;6.30;;;;;;;23.53;100.00;99163.48;105867;1251;61294;-74
2023/08/06 01:23:49;;;;;;;8.10;6.80;;;;;;;23.51;100.00;99152.58;105900;1257;61163;-75
2023/08/06 01:26:42;;;;;;;6.30;5.70;;;;;;;23.50;100.00;99151.73;105977;1252;73272;-75
2023/08/06 01:29:30;;;;;;;7.40;6.70;;;;;;;23.50;100.00;99145.48;105992;1251;70953;-74
2023/08/06 01:31:59;;;;;;;7.90;6.40;;;;;;;23.49;100.00;99148.05;105982;1250;72735;-74
2023/08/06 01:34:29;;;;;;;7.00;6.40;;;;;;;23.47;100.00;99147.41;105968;1252;61323;-74
2023/08/06 01:36:58;;;;;;;10.20;6.40;;;;;;;23.46;100.00;99146.94;106025;1253;61260;-74
2023/08/06 01:39:27;;;;;;;8.40;6.00;;;;;;;23.45;100.00;99145.10;106001;1251;74496;-75
2023/08/06 01:41:58;;;;;;;7.10;6.30;;;;;;;23.42;100.00;99142.84;106011;1250;71003;-74
2023/08/06 01:44:26;;;;;;;7.20;6.50;;;;;;;23.40;100.00;99141.30;105981;1251;72738;-75
2023/08/06 01:46:58;;;;;;;7.10;6.40;;;;;;;23.36;100.00;99141.38;106001;1251;61322;-75
2023/08/06 01:49:29;;;;;;;7.80;7.00;;;;;;;23.35;100.00;99139.02;105937;1253;61183;-74
2023/08/06 01:51:57;;;;;;;10.40;6.60;;;;;;;23.32;100.00;99139.24;105822;1251;73291;-74
2023/08/06 01:54:33;;;;;;;7.70;6.30;;;;;;;23.30;100.00;99133.58;105944;1253;70983;-74
2023/08/06 01:57:02;;;;;;;7.00;6.30;;;;;;;23.28;100.00;99129.58;105964;1251;72655;-74
2023/08/06 01:59:29;;;;;;;7.00;6.30;;;;;;;23.27;100.00;99129.00;105944;1251;61388;-74
2023/08/06 02:02:02;;;;;;;10.40;6.30;;;;;;;23.27;100.00;99127.77;106034;1249;61247;-74
2023/08/06 02:04:31;;;;;;;7.30;6.20;;;;;;;23.26;100.00;99126.60;105990;1253;74552;-74
2023/08/06 02:06:59;;;;;;;7.40;6.10;;;;;;;23.25;100.00;99123.84;105918;1251;70005;-75
2023/08/06 02:09:27;;;;;;;8.70;6.00;;;;;;;23.24;100.00;99123.40;105988;1251;72613;-74
2023/08/06 02:11:58;;;;;;;10.00;6.20;;;;;;;23.23;100.00;99122.58;105913;1250;61276;-74
2023/08/06 02:14:29;;;;;;;11.10;6.80;;;;;;;23.22;100.00;99123.95;105855;1250;61496;-74
2023/08/06 02:16:58;;;;;;;7.00;6.40;;;;;;;23.20;100.00;99126.94;106011;1253;74550;-74
2023/08/06 02:19:28;;;;;;;14.10;6.00;;;;;;;23.17;100.00;99130.50;106025;1253;69952;-75
2023/08/06 02:21:55;;;;;;;9.30;5.70;;;;;;;23.15;100.00;99129.58;105932;1251;71396;-75
2023/08/06 02:24:22;;;;;;;10.10;5.80;;;;;;;23.13;100.00;99131.45;105998;1251;61839;-75
2023/08/06 02:26:55;;;;;;;6.90;6.30;;;;;;;23.10;100.00;99135.23;106063;1253;61221;-74
2023/08/06 02:29:25;;;;;;;7.40;5.80;;;;;;;23.08;100.00;99135.07;106023;1253;74498;-75
2023/08/06 02:31:56;;;;;;;7.50;6.30;;;;;;;23.07;100.00;99136.48;106000;1250;71127;-76
2023/08/06 02:34:24;;;;;;;8.20;6.40;;;;;;;23.04;100.00;99136.66;105959;1253;70882;-75
2023/08/06 02:36:54;;;;;;;6.80;6.20;;;;;;;23.03;100.00;99134.60;105957;1252;61301;-74
2023/08/06 02:39:21;;;;;;;8.20;6.30;;;;;;;23.01;100.00;99136.56;106044;1251;61320;-76
2023/08/06 02:41:48;;;;;;;6.70;6.00;;;;;;;23.01;100.00;99135.89;105941;1253;74538;-74
2023/08/06 02:44:18;;;;;;;7.50;6.70;;;;;;;23.00;100.00;99137.73;105920;1253;70905;-76
2023/08/06 02:46:48;;;;;;;7.70;6.60;;;;;;;22.99;100.00;99138.89;105974;1251;72472;-75
2023/08/06 02:49:16;;;;;;;9.10;6.40;;;;;;;22.96;100.00;99138.80;106047;1253;61879;-76
2023/08/06 02:51:45;;;;;;;7.40;6.40;;;;;;;22.93;100.00;99139.79;105805;1256;61213;-75
2023/08/06 02:54:13;;;;;;;8.40;6.40;;;;;;;22.91;100.00;99138.94;105985;1253;74404;-75
2023/08/06 02:56:48;;;;;;;11.20;6.70;;;;;;;22.88;100.00;99143.12;105948;1254;69271;-74
2023/08/06 02:59:24;;;;;;;11.60;6.90;;;;;;;22.88;100.00;99143.01;106022;1250;72485;-75
2023/08/06 03:02:09;;;;;;;7.20;6.40;;;;;;;22.87;100.00;99146.28;105908;1253;61340;-75
2023/08/06 03:04:56;;;;;;;7.70;6.40;;;;;;;22.86;100.00;99140.98;105959;1251;61109;-74
2023/08/06 03:07:29;;;;;;;8.40;6.90;;;;;;;22.85;100.00;99143.62;106073;1250;74477;-74
2023/08/06 03:10:06;;;;;;;7.20;6.20;;;;;;;22.83;100.00;99141.29;105976;1251;70784;-75
2023/08/06 03:12:38;;;;;;;7.30;6.60;;;;;;;22.81;100.00;99140.34;105971;1254;72933;-75
2023/08/06 03:15:09;;;;;;;7.00;6.20;;;;;;;22.79;100.00;99138.56;105912;1250;61326;-75
2023/08/06 03:17:44;;;;;;;7.40;6.40;;;;;;;22.78;100.00;99141.01;105852;1250;61304;-75
2023/08/06 03:20:14;;;;;;;8.30;6.00;;;;;;;22.78;100.00;99136.37;105809;1251;73142;-75
2023/08/06 03:22:45;;;;;;;8.90;6.50;;;;;;;22.78;100.00;99132.56;105956;1250;70981;-75
2023/08/06 03:25:18;;;;;;;9.00;6.60;;;;;;;22.78;100.00;99136.52;105900;1250;72323;-75
2023/08/06 03:27:48;;;;;;;6.60;6.00;;;;;;;22.78;100.00;99133.66;105944;1252;61247;-74
2023/08/06 03:30:20;;;;;;;9.70;6.40;;;;;;;22.80;100.00;99130.80;105806;1250;61384;-74
2023/08/06 03:32:49;;;;;;;9.80;6.60;;;;;;;22.81;100.00;99131.76;105859;1255;73564;-74
2023/08/06 03:35:18;;;;;;;6.70;6.10;;;;;;;22.83;100.00;99131.67;105884;1254;70833;-74
2023/08/06 03:37:47;;;;;;;7.00;6.30;;;;;;;22.83;100.00;99132.88;105947;1251;71887;-74
2023/08/06 03:40:15;;;;;;;7.90;6.60;;;;;;;22.82;100.00;99134.20;105947;1253;61349;-74
2023/08/06 03:42:46;;;;;;;7.20;6.30;;;;;;;22.83;100.00;99132.34;105820;1256;61643;-75
2023/08/06 03:45:14;;;;;;;9.80;6.80;;;;;;;22.85;100.00;99129.30;105986;1250;75149;-75
2023/08/06 03:47:44;;;;;;;8.90;6.40;;;;;;;22.87;100.00;99128.94;106006;1250;62352;-74
2023/08/06 03:50:13;;;;;;;7.80;6.30;;;;;;;22.89;100.00;99123.55;105932;1250;70724;-74
2023/08/06 03:52:41;;;;;;;7.10;6.40;;;;;;;22.90;100.00;99122.33;106147;1249;61241;-75
2023/08/06 03:55:13;;;;;;;7.50;6.70;;;;;;;22.92;100.00;99123.26;106018;1250;61267;-75
2023/08/06 03:57:44;;;;;;;12.40;6.90;;;;;;;22.94;100.00;99122.41;105895;1250;73390;-74
2023/08/06 04:00:15;;;;;;;7.50;5.90;;;;;;;22.95;100.00;99118.36;105960;1251;71072;-74
2023/08/06 04:02:44;;;;;;;11.90;7.00;;;;;;;22.97;100.00;99116.35;105944;1253;72524;-75
2023/08/06 04:05:13;;;;;;;7.40;5.60;;;;;;;22.99;100.00;99115.48;105997;1250;61375;-75
2023/08/06 04:07:41;;;;;;;7.80;6.30;;;;;;;23.00;100.00;99119.65;105868;1251;61310;-75
2023/08/06 04:10:09;;;;;;;7.80;6.50;;;;;;;23.03;100.00;99108.91;105994;1251;74383;-74
2023/08/06 04:12:41;;;;;;;6.40;5.90;;;;;;;23.05;100.00;99117.11;105969;1250;69824;-74
2023/08/06 04:15:11;;;;;;;7.30;6.10;;;;;;;23.08;100.00;99110.58;105972;1249;72519;-74
2023/08/06 04:17:40;;;;;;;12.20;6.60;;;;;;;23.11;100.00;99107.98;106012;1250;61351;-75
2023/08/06 04:20:08;;;;;;;12.60;6.50;;;;;;;23.12;100.00;99103.92;105863;1256;61340;-75
2023/08/06 04:22:40;;;;;;;7.20;6.50;;;;;;;23.15;100.00;99099.95;105986;1251;73327;-75
2023/08/06 04:25:08;;;;;;;8.30;6.60;;;;;;;23.17;100.00;99094.89;105976;1253;70323;-74
2023/08/06 04:27:41;;;;;;;10.80;6.40;;;;;;;23.20;100.00;99091.55;105867;1251;71728;-74
2023/08/06 04:30:12;;;;;;;7.10;6.40;;;;;;;23.24;100.00;99089.78;105868;1250;61753;-74
2023/08/06 04:32:41;;;;;;;10.30;6.40;;;;;;;23.28;100.00;99084.02;105893;1249;61250;-74
2023/08/06 04:35:09;;;;;;;8.80;6.50;;;;;;;23.31;100.00;99082.80;106037;1250;75063;-75
2023/08/06 04:37:39;;;;;;;7.60;6.70;;;;;;;23.34;100.00;99080.89;106019;1250;71047;-75
2023/08/06 04:40:07;;;;;;;7.20;6.50;;;;;;;23.38;100.00;99081.78;105977;1249;72515;-75
2023/08/06 04:42:35;;;;;;;10.90;6.40;;;;;;;23.44;100.00;99080.05;105968;1251;61454;-75
2023/08/06 04:45:05;;;;;;;10.00;6.90;;;;;;;23.48;100.00;99077.98;106007;1250;61602;-74
2023/08/06 04:47:33;;;;;;;8.80;6.60;;;;;;;23.52;100.00;99075.54;105799;1251;74129;-75
2023/08/06 04:50:02;;;;;;;9.90;6.80;;;;;;;23.54;100.00;99070.98;105949;1253;69600;-74
2023/08/06 04:52:32;;;;;;;7.30;6.60;;;;;;;23.56;100.00;99065.08;105960;1250;72653;-74
2023/08/06 04:55:00;;;;;;;10.50;7.00;;;;;;;23.59;100.00;99065.45;106000;1250;61750;-74
2023/08/06 04:57:28;;;;;;;10.00;6.70;;;;;;;23.64;100.00;99057.52;105790;1250;61202;-75
2023/08/06 04:59:57;;;;;;;11.00;6.20;;;;;;;23.67;100.00;99060.09;105970;1251;73383;-75
2023/08/06 05:02:27;;;;;;;7.10;6.50;;;;;;;23.70;100.00;99050.84;105979;1253;69760;-75
2023/08/06 05:04:56;;;;;;;7.60;6.30;;;;;;;23.75;100.00;99047.66;106105;1250;72667;-75
2023/08/06 05:07:26;;;;;;;7.90;6.90;;;;;;;23.82;100.00;99049.36;106006;1250;61301;-74
2023/08/06 05:09:54;;;;;;;9.70;6.30;;;;;;;23.87;100.00;99050.79;105992;1250;61336;-75
2023/08/06 05:12:23;;;;;;;8.70;6.50;;;;;;;23.93;100.00;99045.56;106044;1249;74468;-75
2023/08/06 05:14:51;;;;;;;6.50;5.90;;;;;;;23.99;100.00;99036.80;105964;1249;71143;-75
2023/08/06 05:17:19;;;;;;;7.90;6.00;;;;;;;24.05;100.00;99037.45;105948;1251;72444;-74
2023/08/06 05:19:49;;;;;;;7.30;6.70;;;;;;;24.11;100.00;99032.89;106034;1250;61265;-75
2023/08/06 05:22:18;;;;;;;9.00;6.70;;;;;;;24.17;100.00;99030.33;106023;1250;61249;-74
2023/08/06 05:24:45;;;;;;;7.50;6.80;;;;;;;24.23;100.00;99027.26;105880;1254;74683;-74
2023/08/06 05:27:18;;;;;;;10.50;5.60;;;;;;;24.29;100.00;99024.10;105931;1253;69774;-75
2023/08/06 05:29:47;;;;;;;6.30;5.70;;;;;;;24.37;100.00;99015.58;106081;1250;72746;-75
2023/08/06 05:32:16;;;;;;;11.20;6.80;;;;;;;24.44;100.00;99018.90;106092;1249;61298;-76
2023/08/06 05:34:43;;;;;;;7.60;6.50;;;;;;;24.50;100.00;99013.95;105901;1251;61273;-76
2023/08/06 05:37:13;;;;;;;13.60;6.30;;;;;;;24.57;100.00;99011.47;105800;1257;74715;-75
2023/08/06 05:39:42;;;;;;;6.60;5.90;;;;;;;24.65;100.00;98999.77;105974;1253;69066;-74
2023/08/06 05:42:09;;;;;;;9.90;6.20;;;;;;;24.72;100.00;98994.35;105958;1250;72353;-74
2023/08/06 05:44:37;;;;;;;8.70;5.90;;;;;;;24.78;100.00;98993.71;105979;1251;61406;-75
2023/08/06 05:47:05;;;;;;;12.00;6.60;;;;;;;24.84;100.00;98993.86;106046;1253;61212;-77
2023/08/06 05:49:36;;;;;;;8.00;6.80;;;;;;;24.90;100.00;98992.22;105940;1250;74678;-75
2023/08/06 05:52:08;;;;;;;7.30;6.00;;;;;;;24.96;100.00;98987.30;105974;1250;71124;-75
2023/08/06 05:54:40;;;;;;;12.00;6.30;;;;;;;25.03;100.00;98981.17;105984;1251;72663;-76
2023/08/06 05:57:09;;;;;;;7.20;6.20;;;;;;;25.11;100.00;98973.70;106001;1251;61263;-76
2023/08/06 05:59:39;;;;;;;7.30;5.90;;;;;;;25.17;100.00;98969.77;105965;1250;61237;-75
2023/08/06 06:02:09;;;;;;;7.50;5.70;;;;;;;25.25;100.00;98968.81;105909;1253;74477;-75
2023/08/06 06:04:37;;;;;;;6.70;5.90;;;;;;;25.33;100.00;98966.24;105977;1250;71401;-75
2023/08/06 06:07:06;;;;;;;9.20;6.20;;;;;;;25.41;100.00;98961.06;105950;1250;72423;-75
2023/08/06 06:09:39;;;;;;;8.10;6.40;;;;;;;25.49;100.00;98956.11;106042;1251;61245;-75
2023/08/06 06:12:11;;;;;;;7.50;6.00;;;;;;;25.56;100.00;98953.41;105992;1250;61350;-74
2023/08/06 06:14:40;;;;;;;6.80;6.00;;;;;;;25.64;100.00;98951.55;105994;1249;74493;-75
2023/08/06 06:17:10;;;;;;;8.30;6.10;;;;;;;25.70;100.00;98949.19;106091;1251;71148;-78
2023/08/06 06:19:38;;;;;;;6.70;6.00;;;;;;;25.77;100.00;98950.08;106005;1253;72472;-76
2023/08/06 06:22:09;;;;;;;8.70;6.30;;;;;;;25.83;100.00;98948.34;105873;1249;61387;-75
2023/08/06 06:24:37;;;;;;;8.50;5.20;;;;;;;25.89;100.00;98946.84;105920;1249;61325;-74
2023/08/06 06:27:07;;;;;;;8.20;6.10;;;;;;;25.95;100.00;98946.16;105979;1250;74697;-75
2023/08/06 06:29:35;;;;;;;7.30;5.80;;;;;;;26.02;100.00;98938.45;105916;1250;70907;-75
2023/08/06 06:32:04;;;;;;;7.20;6.30;;;;;;;26.09;100.00;98935.20;105971;1250;72728;-74
2023/08/06 06:34:33;;;;;;;8.10;6.10;;;;;;;26.14;100.00;98932.11;106056;1249;61343;-76
2023/08/06 06:37:01;;;;;;;6.60;5.90;;;;;;;26.21;100.00;98921.69;105959;1250;61283;-75
2023/08/06 06:39:30;;;;;;;10.10;5.90;;;;;;;26.28;100.00;98914.05;106056;1250;73464;-76
2023/08/06 06:42:00;;;;;;;11.50;5.60;;;;;;;26.35;100.00;98906.98;105995;1249;70868;-76
2023/08/06 06:44:32;;;;;;;8.90;5.10;;;;;;;26.44;100.00;98910.20;105317;1250;1003067;-76
2023/08/06 06:47:04;;;;;;;6.10;5.50;;;;;;;26.51;100.00;98903.08;105991;1251;61286;-75
2023/08/06 06:49:34;;;;;;;7.10;5.80;;;;;;;26.59;100.00;98895.57;106018;1253;61243;-76
2023/08/06 06:52:03;;;;;;;6.40;5.20;;;;;;;26.66;100.00;98891.55;106047;1250;73209;-75
2023/08/06 06:54:31;;;;;;;9.70;5.60;;;;;;;26.74;100.00;98890.52;105994;1250;71078;-76
2023/08/06 06:57:03;;;;;;;5.50;5.00;;;;;;;26.81;100.00;98889.30;105995;1253;72543;-75
2023/08/06 06:59:31;;;;;;;6.30;5.40;;;;;;;26.89;100.00;98880.65;106045;1250;61260;-76
2023/08/06 07:01:59;;;;;;;8.20;5.00;;;;;;;26.96;100.00;98876.64;105963;1249;61352;-75
2023/08/06 07:04:27;;;;;;;6.20;5.40;;;;;;;27.03;100.00;98876.39;106052;1253;74600;-75
2023/08/06 07:06:54;;;;;;;6.40;5.00;;;;;;;27.10;100.00;98876.89;106016;1250;69526;-75
2023/08/06 07:09:22;;;;;;;11.90;4.80;;;;;;;27.18;100.00;98868.65;106132;1251;72464;-75
2023/08/06 07:11:52;;;;;;;7.10;5.20;;;;;;;27.25;100.00;98862.59;106059;1251;61228;-76
2023/08/06 07:14:20;;;;;;;8.60;5.10;;;;;;;27.32;100.00;98855.15;106072;1251;61240;-75
2023/08/06 07:16:48;;;;;;;6.00;4.90;;;;;;;27.39;100.00;98848.69;105987;1250;74617;-75
2023/08/06 07:19:17;;;;;;;7.60;4.70;;;;;;;27.46;100.00;98845.20;106053;1250;71133;-74
2023/08/06 07:21:46;;;;;;;8.70;5.10;;;;;;;27.54;100.00;98839.16;105924;1250;72448;-75
2023/08/06 07:24:21;;;;;;;7.40;5.00;;;;;;;27.61;100.00;98838.80;105969;1250;61855;-75
2023/08/06 07:26:49;;;;;;;4.90;4.50;;;;;;;27.69;100.00;98835.94;106038;1250;61385;-75
2023/08/06 07:29:21;;;;;;;8.80;4.30;;;;;;;27.76;100.00;98836.16;105969;1251;65825;-76
2023/08/06 07:31:50;;;;;;;6.30;4.30;;;;;;;27.84;100.00;98830.27;106069;1250;62344;-75
2023/08/06 07:34:18;;;;;;;11.70;4.70;;;;;;;27.91;100.00;98828.69;106007;1253;63908;-75
2023/08/06 07:36:47;;;;;;;11.30;5.10;;;;;;;27.98;100.00;98825.09;105918;1253;61244;-75
2023/08/06 07:39:16;;;;;;;8.10;4.60;;;;;;;28.06;100.00;98821.82;105973;1253;61236;-75
2023/08/06 07:41:45;;;;;;;7.20;5.10;;;;;;;28.14;100.00;98813.09;106025;1253;64791;-76
2023/08/06 07:44:17;;;;;;;6.50;4.30;;;;;;;28.23;100.00;98807.77;106037;1253;71105;-76
2023/08/06 07:46:44;;;;;;;9.10;4.40;;;;;;;28.29;100.00;98803.07;106011;1253;72600;-76
2023/08/06 07:49:14;;;;;;;5.20;4.50;;;;;;;28.35;100.00;98797.09;106064;1249;61312;-76
2023/08/06 07:51:45;;;;;;;7.80;4.50;;;;;;;28.42;100.00;98800.56;105995;1253;61301;-74
2023/08/06 07:54:13;;;;;;;6.50;3.90;;;;;;;28.50;100.00;98803.80;105988;1250;64564;-76
2023/08/06 07:56:42;;;;;;;4.90;4.20;;;;;;;28.58;100.00;98796.94;106066;1250;62356;-75
2023/08/06 07:59:10;;;;;;;7.60;4.40;;;;;;;28.66;100.00;98794.71;106100;1251;64641;-76
2023/08/06 08:01:39;;;;;;;6.00;4.30;;;;;;;28.75;100.00;98796.89;105996;1251;61359;-73
2023/08/06 08:04:10;;;;;;;11.60;4.30;;;;;;;28.84;100.00;98797.71;106038;1253;61327;-75
2023/08/06 08:06:45;;;;;;;4.90;4.10;;;;;;;28.92;100.00;98793.06;106138;1253;66032;-75
2023/08/06 08:09:15;;;;;;;8.70;4.10;;;;;;;29.01;100.00;98785.01;106118;1251;61795;-76
2023/08/06 08:11:43;;;;;;;9.70;4.10;;;;;;;29.07;100.00;98783.34;106121;1251;62560;-75
2023/08/06 08:14:12;;;;;;;10.10;4.50;;;;;;;29.12;100.00;98781.60;106243;1253;61343;-76
2023/08/06 08:16:40;;;;;;;9.30;4.20;;;;;;;29.19;100.00;98779.70;106132;1251;61322;-75
2023/08/06 08:19:08;;;;;;;6.60;4.30;;;;;;;29.27;100.00;98774.71;106203;1253;65811;-75
2023/08/06 08:21:38;;;;;;;9.70;4.50;;;;;;;29.36;100.00;98776.55;106097;1253;62384;-75
2023/08/06 08:24:07;;;;;;;6.70;4.00;;;;;;;29.42;100.00;98772.19;106122;1253;62550;-76
2023/08/06 08:26:35;;;;;;;9.00;4.30;;;;;;;29.47;100.00;98766.61;106219;1251;61305;-75
2023/08/06 08:29:03;;;;;;;11.70;4.30;;;;;;;29.54;100.00;98766.85;106096;1250;61280;-75
2023/08/06 08:31:32;;;;;;;6.50;3.80;;;;;;;29.61;100.00;98758.62;106151;1253;66096;-75
2023/08/06 08:34:02;;;;;;;6.30;4.50;;;;;;;29.71;100.00;98753.48;106207;1251;62480;-75
2023/08/06 08:36:46;;;;;;;6.20;3.80;;;;;;;29.80;100.00;98753.55;106496;1254;64159;-75
2023/08/06 08:39:14;;;;;;;9.00;3.90;;;;;;;29.89;100.00;98747.28;106160;1250;61260;-75
2023/08/06 08:41:44;;;;;;;9.70;4.20;;;;;;;29.96;100.00;98750.34;106161;1249;61288;-74
2023/08/06 08:44:20;;;;;;;7.50;3.70;;;;;;;30.01;100.00;98747.29;106135;1250;65834;-75
2023/08/06 08:46:50;;;;;;;8.50;4.10;;;;;;;30.06;100.00;98745.31;106098;1250;62302;-77
2023/08/06 08:49:20;;;;;;;12.30;3.90;;;;;;;30.11;100.00;98743.06;106004;1250;62582;-75
2023/08/06 08:51:48;;;;;;;11.20;4.00;;;;;;;30.17;100.00;98742.10;106105;1250;61390;-74
2023/08/06 08:54:15;;;;;;;7.80;4.00;;;;;;;30.24;100.00;98744.89;106109;1251;61254;-76
2023/08/06 08:56:44;;;;;;;8.10;4.30;;;;;;;30.32;100.00;98739.32;106068;1252;61266;-75
2023/08/06 08:59:13;;;;;;;7.90;3.80;;;;;;;30.40;100.00;98734.17;106157;1250;62328;-74
2023/08/06 09:01:43;;;;;;;8.40;3.60;;;;;;;30.46;100.00;98736.27;106078;1251;62441;-75
2023/08/06 09:04:16;;;;;;;10.30;3.90;;;;;;;30.53;100.00;98729.98;106122;1253;61236;-76
2023/08/06 09:06:48;;;;;;;9.70;3.70;;;;;;;30.59;100.00;98729.00;106219;1249;61298;-76
2023/08/06 09:09:33;;;;;;;7.20;4.10;;;;;;;30.67;100.00;98728.49;106020;1256;65996;-76
2023/08/06 09:12:10;;;;;;;6.10;3.90;;;;;;;30.75;100.00;98724.60;106090;1251;62263;-76
2023/08/06 09:14:38;;;;;;;11.80;3.80;;;;;;;30.84;100.00;98722.50;106133;1253;63980;-75
2023/08/06 09:17:13;;;;;;;4.20;3.80;;;;;;;30.91;100.00;98716.80;106272;1253;61260;-76
2023/08/06 09:19:47;;;;;;;12.60;4.00;;;;;;;30.99;100.00;98718.88;106262;1252;61233;-76
2023/08/06 09:22:18;;;;;;;6.40;3.70;;;;;;;31.05;100.00;98712.83;106170;1250;65907;-75
2023/08/06 09:24:46;;;;;;;7.00;3.70;;;;;;;31.11;100.00;98705.02;106186;1253;62451;-76
2023/08/06 09:27:18;;;;;;;6.70;3.70;;;;;;;31.17;100.00;98702.43;106079;1253;62534;-76
2023/08/06 09:29:47;;;;;;;8.00;4.40;;;;;;;31.22;100.00;98700.77;106030;1250;61276;-76
2023/08/06 09:32:17;;;;;;;9.50;4.10;;;;;;;31.27;100.00;98697.21;106177;1251;61136;-75
2023/08/06 09:34:45;;;;;;;7.50;3.90;;;;;;;31.32;100.00;98692.69;106227;1250;66048;-75
2023/08/06 09:37:14;;;;;;;10.80;3.70;;;;;;;31.39;100.00;98686.20;106269;1250;62200;-77
2023/08/06 09:39:42;;;;;;;6.50;3.70;;;;;;;31.45;100.00;98681.94;106218;1253;62755;-76
2023/08/06 09:42:22;;;;;;;10.50;3.70;;;;;;;31.52;100.00;98678.66;106130;1253;61270;-76
2023/08/06 09:44:51;;;;;;;11.20;3.80;;;;;;;31.60;100.00;98675.19;106315;1250;61229;-75
2023/08/06 09:47:22;;;;;;;8.00;3.80;;;;;;;31.68;100.00;98671.36;106066;1255;65913;-76
2023/08/06 09:49:54;;;;;;;9.60;3.60;;;;;;;31.77;100.00;98663.45;106309;1250;62337;-75
2023/08/06 09:52:23;;;;;;;8.10;3.80;;;;;;;31.84;100.00;98660.09;106221;1251;62653;-75
2023/08/06 09:54:52;;;;;;;9.50;4.30;;;;;;;31.90;100.00;98653.73;106134;1253;61231;-75
2023/08/06 09:57:22;;;;;;;5.20;3.80;;;;;;;31.95;100.00;98651.74;106107;1250;61301;-76
2023/08/06 09:59:50;;;;;;;4.00;3.50;;;;;;;32.02;100.00;98648.05;106190;1250;64567;-75
2023/08/06 10:02:19;;;;;;;9.40;3.90;;;;;;;32.10;100.00;98648.19;106175;1251;61457;-75
2023/08/06 10:04:50;;;;;;;6.80;4.00;;;;;;;32.18;100.00;98647.06;106012;1253;63846;-76
2023/08/06 10:07:24;;;;;;;7.00;3.50;;;;;;;32.27;100.00;98645.41;106184;1253;61273;-75
2023/08/06 10:09:55;;;;;;;6.50;3.50;;;;;;;32.35;100.00;98644.08;106188;1253;61164;-75
2023/08/06 10:12:24;;;;;;;10.20;3.80;;;;;;;32.42;100.00;98636.22;106187;1250;64436;-76
2023/08/06 10:14:57;;;;;;;10.10;3.60;;;;;;;32.48;100.00;98633.13;106226;1251;62330;-75
2023/08/06 10:17:25;;;;;;;11.30;3.70;;;;;;;32.55;100.00;98635.19;106380;1251;63704;-76
2023/08/06 10:20:13;;;;;;;8.50;3.80;;;;;;;32.64;100.00;98624.61;106200;1250;61276;-75
2023/08/06 10:22:50;;;;;;;12.50;3.90;;;;;;;32.69;100.00;98619.85;106240;1251;61364;-75
2023/08/06 10:25:21;;;;;;;17.90;3.70;;;;;;;32.73;100.00;98617.27;106223;1251;65748;-75
2023/08/06 10:27:51;;;;;;;12.80;3.80;;;;;;;32.78;100.00;98609.70;105914;1251;61244;-74
2023/08/06 10:30:28;;;;;;;11.00;3.60;;;;;;;32.82;100.00;98612.70;106091;1253;63879;-75
2023/08/06 10:33:00;;;;;;;6.30;3.90;;;;;;;32.87;100.00;98609.44;106099;1250;61320;-75
2023/08/06 10:35:47;;;;;;;6.50;3.50;;;;;;;32.95;100.00;98605.56;106314;1250;61255;-75
2023/08/06 10:38:27;;;;;;;11.30;3.30;;;;;;;33.04;100.00;98597.08;106372;1253;65058;-75
2023/08/06 10:41:00;;;;;;;9.00;3.40;;;;;;;33.11;100.00;98593.88;106429;1249;62333;-75
2023/08/06 10:43:43;;;;;;;5.70;3.40;;;;;;;33.17;100.00;98585.92;106225;1253;62601;-79
2023/08/06 10:46:28;;;;;;;9.00;3.90;;;;;;;33.23;100.00;98582.77;106072;1250;61333;-76
2023/08/06 10:48:56;;;;;;;10.00;3.70;;;;;;;33.31;100.00;98580.82;106091;1253;61251;-76
2023/08/06 10:51:25;;;;;;;7.80;4.00;;;;;;;33.39;100.00;98573.95;105999;1250;65829;-76
2023/08/06 10:53:57;;;;;;;8.20;4.10;;;;;;;33.43;100.00;98571.85;106256;1250;61249;-75
2023/08/06 10:56:27;;;;;;;10.00;3.40;;;;;;;33.46;100.00;98569.23;106076;1253;64198;-75
2023/08/06 10:58:59;;;;;;;6.30;3.40;;;;;;;33.49;100.00;98562.17;106234;1251;61426;-76
2023/08/06 11:01:31;;;;;;;12.90;3.40;;;;;;;33.53;100.00;98555.10;106214;1253;61353;-75
2023/08/06 11:04:05;;;;;;;12.40;3.60;;;;;;;33.57;100.00;98550.70;106310;1250;65793;-76
2023/08/06 11:06:33;;;;;;;6.30;3.10;;;;;;;33.65;100.00;98549.48;106378;1251;61342;-75
2023/08/06 11:09:02;;;;;;;10.10;3.00;;;;;;;33.75;100.00;98547.73;106500;1253;64090;-75
2023/08/06 11:11:36;;;;;;;6.50;3.40;;;;;;;33.82;100.00;98538.65;106364;1251;61281;-76
2023/08/06 11:14:06;;;;;;;10.90;3.30;;;;;;;33.86;100.00;98533.20;104956;1251;2041913;-74
2023/08/06 11:16:36;;;;;;;4.70;3.00;;;;;;;33.88;100.00;98533.88;106485;1251;66372;-76
2023/08/06 11:19:04;;;;;;;4.40;2.80;;;;;;;33.92;100.00;98529.52;106423;1253;62346;-75
2023/08/06 11:21:33;;;;;;;7.40;3.00;;;;;;;33.95;100.00;98527.46;106377;1250;63810;-75
2023/08/06 11:24:03;;;;;;;4.80;2.80;;;;;;;33.98;100.00;98526.08;106262;1249;61464;-76
2023/08/06 11:26:40;;;;;;;9.20;2.90;;;;;;;34.01;100.00;98518.82;106345;1253;61276;-75
2023/08/06 11:29:14;;;;;;;6.40;2.90;;;;;;;34.02;100.00;98520.73;106313;1250;64431;-75